sensor_id;sensor_type;location;lat;lon;timestamp;P1;durP1;ratioP1;P2;durP2;ratioP2
26858;SDS011;14429;48.346;16.338;2023-04-24T00:00:45;1.83;;;1.42;;
26858;SDS011;14429;48.346;16.338;2023-04-24T00:03:12;4.45;;;2.15;;
26858;SDS011;14429;48.346;16.338;2023-04-24T00:05:38;3.85;;;2.38;;
26858;SDS011;14429;48.346;16.338;2023-04-24T00:08:03;4.63;;;2.47;;
26858;SDS011;14429;48.346;16.338;2023-04-24T00:10:29;2.33;;;1.50;;
26858;SDS011;14429;48.346;16.338;2023-04-24T00:12:54;1.42;;;1.25;;
26858;SDS011;14429;48.346;16.338;2023-04-24T00:15:20;3.22;;;2.70;;
26858;SDS011;14429;48.346;16.338;2023-04-24T00:17:45;1.45;;;1.20;;
26858;SDS011;14429;48.346;16.338;2023-04-24T00:20:12;1.52;;;1.20;;
26858;SDS011;14429;48.346;16.338;2023-04-24T00:22:38;1.55;;;1.30;;
26858;SDS011;14429;48.346;16.338;2023-04-24T00:25:03;1.73;;;1.20;;
26858;SDS011;14429;48.346;16.338;2023-04-24T00:27:29;1.27;;;0.93;;
26858;SDS011;14429;48.346;16.338;2023-04-24T00:29:55;1.80;;;1.55;;
26858;SDS011;14429;48.346;16.338;2023-04-24T00:32:20;2.95;;;1.45;;
26858;SDS011;14429;48.346;16.338;2023-04-24T00:34:46;2.03;;;1.30;;
26858;SDS011;14429;48.346;16.338;2023-04-24T00:37:13;1.98;;;1.75;;
26858;SDS011;14429;48.346;16.338;2023-04-24T00:39:38;1.23;;;1.13;;
26858;SDS011;14429;48.346;16.338;2023-04-24T00:42:03;2.10;;;1.90;;
26858;SDS011;14429;48.346;16.338;2023-04-24T00:44:29;4.80;;;2.20;;
26858;SDS011;14429;48.346;16.338;2023-04-24T00:46:54;4.32;;;2.75;;
26858;SDS011;14429;48.346;16.338;2023-04-24T00:49:20;4.80;;;3.10;;
26858;SDS011;14429;48.346;16.338;2023-04-24T00:51:46;2.30;;;1.50;;
26858;SDS011;14429;48.346;16.338;2023-04-24T00:54:13;1.75;;;1.25;;
26858;SDS011;14429;48.346;16.338;2023-04-24T00:56:38;1.40;;;1.13;;
26858;SDS011;14429;48.346;16.338;2023-04-24T00:59:04;1.65;;;1.40;;
26858;SDS011;14429;48.346;16.338;2023-04-24T01:01:30;1.42;;;1.25;;
26858;SDS011;14429;48.346;16.338;2023-04-24T01:03:55;1.92;;;1.30;;
26858;SDS011;14429;48.346;16.338;2023-04-24T01:06:23;1.48;;;1.38;;
26858;SDS011;14429;48.346;16.338;2023-04-24T01:08:52;1.65;;;1.17;;
26858;SDS011;14429;48.346;16.338;2023-04-24T01:11:20;1.60;;;1.17;;
26858;SDS011;14429;48.346;16.338;2023-04-24T01:13:46;3.50;;;1.40;;
26858;SDS011;14429;48.346;16.338;2023-04-24T01:16:12;2.08;;;1.38;;
26858;SDS011;14429;48.346;16.338;2023-04-24T01:18:38;1.02;;;1.00;;
26858;SDS011;14429;48.346;16.338;2023-04-24T01:21:04;1.63;;;1.17;;
26858;SDS011;14429;48.346;16.338;2023-04-24T01:23:32;2.03;;;1.40;;
26858;SDS011;14429;48.346;16.338;2023-04-24T01:25:57;1.25;;;1.08;;
26858;SDS011;14429;48.346;16.338;2023-04-24T01:28:23;1.88;;;1.40;;
26858;SDS011;14429;48.346;16.338;2023-04-24T01:30:48;1.90;;;1.20;;
26858;SDS011;14429;48.346;16.338;2023-04-24T01:33:14;1.35;;;1.20;;
26858;SDS011;14429;48.346;16.338;2023-04-24T01:35:41;1.70;;;1.20;;
26858;SDS011;14429;48.346;16.338;2023-04-24T01:38:07;1.38;;;1.15;;
26858;SDS011;14429;48.346;16.338;2023-04-24T01:40:34;1.42;;;1.08;;
26858;SDS011;14429;48.346;16.338;2023-04-24T01:42:59;2.28;;;1.40;;
26858;SDS011;14429;48.346;16.338;2023-04-24T01:45:25;2.10;;;1.38;;
26858;SDS011;14429;48.346;16.338;2023-04-24T01:47:51;0.93;;;0.88;;
26858;SDS011;14429;48.346;16.338;2023-04-24T01:50:16;2.50;;;1.48;;
26858;SDS011;14429;48.346;16.338;2023-04-24T01:52:42;1.40;;;1.20;;
26858;SDS011;14429;48.346;16.338;2023-04-24T01:55:08;1.55;;;1.30;;
26858;SDS011;14429;48.346;16.338;2023-04-24T01:57:35;2.38;;;1.58;;
26858;SDS011;14429;48.346;16.338;2023-04-24T02:00:01;1.27;;;1.17;;
26858;SDS011;14429;48.346;16.338;2023-04-24T02:02:27;1.42;;;1.20;;
26858;SDS011;14429;48.346;16.338;2023-04-24T02:04:52;5.43;;;1.85;;
26858;SDS011;14429;48.346;16.338;2023-04-24T02:07:18;1.35;;;1.20;;
26858;SDS011;14429;48.346;16.338;2023-04-24T02:09:43;1.73;;;1.30;;
26858;SDS011;14429;48.346;16.338;2023-04-24T02:12:09;3.65;;;1.58;;
26858;SDS011;14429;48.346;16.338;2023-04-24T02:14:36;1.77;;;1.25;;
26858;SDS011;14429;48.346;16.338;2023-04-24T02:17:01;1.80;;;1.30;;
26858;SDS011;14429;48.346;16.338;2023-04-24T02:19:27;1.70;;;1.20;;
26858;SDS011;14429;48.346;16.338;2023-04-24T02:21:52;1.60;;;1.35;;
26858;SDS011;14429;48.346;16.338;2023-04-24T02:24:18;1.95;;;1.73;;
26858;SDS011;14429;48.346;16.338;2023-04-24T02:26:43;1.48;;;1.10;;
26858;SDS011;14429;48.346;16.338;2023-04-24T02:29:08;1.10;;;0.95;;
26858;SDS011;14429;48.346;16.338;2023-04-24T02:31:35;1.58;;;1.38;;
26858;SDS011;14429;48.346;16.338;2023-04-24T02:34:01;1.75;;;1.58;;
26858;SDS011;14429;48.346;16.338;2023-04-24T02:36:26;4.55;;;2.22;;
26858;SDS011;14429;48.346;16.338;2023-04-24T02:38:52;1.35;;;1.02;;
26858;SDS011;14429;48.346;16.338;2023-04-24T02:41:17;1.55;;;1.35;;
26858;SDS011;14429;48.346;16.338;2023-04-24T02:43:43;1.77;;;1.33;;
26858;SDS011;14429;48.346;16.338;2023-04-24T02:46:08;8.18;;;3.30;;
26858;SDS011;14429;48.346;16.338;2023-04-24T02:48:35;4.38;;;3.13;;
26858;SDS011;14429;48.346;16.338;2023-04-24T02:51:00;2.53;;;1.67;;
26858;SDS011;14429;48.346;16.338;2023-04-24T02:53:26;1.38;;;1.25;;
26858;SDS011;14429;48.346;16.338;2023-04-24T02:55:52;1.55;;;1.10;;
26858;SDS011;14429;48.346;16.338;2023-04-24T02:58:17;1.90;;;1.42;;
26858;SDS011;14429;48.346;16.338;2023-04-24T03:00:43;3.05;;;2.30;;
26858;SDS011;14429;48.346;16.338;2023-04-24T03:03:08;4.68;;;2.28;;
26858;SDS011;14429;48.346;16.338;2023-04-24T03:05:35;1.95;;;1.38;;
26858;SDS011;14429;48.346;16.338;2023-04-24T03:08:00;2.13;;;1.60;;
26858;SDS011;14429;48.346;16.338;2023-04-24T03:10:26;1.25;;;1.15;;
26858;SDS011;14429;48.346;16.338;2023-04-24T03:12:52;2.13;;;1.45;;
26858;SDS011;14429;48.346;16.338;2023-04-24T03:15:18;1.60;;;1.20;;
26858;SDS011;14429;48.346;16.338;2023-04-24T03:17:43;2.47;;;1.50;;
26858;SDS011;14429;48.346;16.338;2023-04-24T03:20:09;4.00;;;1.95;;
26858;SDS011;14429;48.346;16.338;2023-04-24T03:22:36;2.53;;;1.63;;
26858;SDS011;14429;48.346;16.338;2023-04-24T03:25:01;2.08;;;1.30;;
26858;SDS011;14429;48.346;16.338;2023-04-24T03:27:27;2.85;;;1.30;;
26858;SDS011;14429;48.346;16.338;2023-04-24T03:29:52;2.55;;;2.33;;
26858;SDS011;14429;48.346;16.338;2023-04-24T03:32:18;1.10;;;0.93;;
26858;SDS011;14429;48.346;16.338;2023-04-24T03:34:43;2.15;;;1.45;;
26858;SDS011;14429;48.346;16.338;2023-04-24T03:37:09;1.95;;;1.30;;
26858;SDS011;14429;48.346;16.338;2023-04-24T03:39:35;2.15;;;1.60;;
26858;SDS011;14429;48.346;16.338;2023-04-24T03:42:01;1.92;;;1.33;;
26858;SDS011;14429;48.346;16.338;2023-04-24T03:44:26;1.92;;;1.55;;
26858;SDS011;14429;48.346;16.338;2023-04-24T03:46:52;1.63;;;1.40;;
26858;SDS011;14429;48.346;16.338;2023-04-24T03:49:17;2.53;;;1.75;;
26858;SDS011;14429;48.346;16.338;2023-04-24T03:51:43;3.00;;;1.52;;
26858;SDS011;14429;48.346;16.338;2023-04-24T03:54:08;1.60;;;1.25;;
26858;SDS011;14429;48.346;16.338;2023-04-24T03:56:35;2.00;;;1.63;;
26858;SDS011;14429;48.346;16.338;2023-04-24T03:59:00;2.22;;;1.33;;
26858;SDS011;14429;48.346;16.338;2023-04-24T04:01:26;1.75;;;1.25;;
26858;SDS011;14429;48.346;16.338;2023-04-24T04:03:51;1.60;;;1.17;;
26858;SDS011;14429;48.346;16.338;2023-04-24T04:06:17;3.45;;;1.63;;
26858;SDS011;14429;48.346;16.338;2023-04-24T04:08:42;1.27;;;1.08;;
26858;SDS011;14429;48.346;16.338;2023-04-24T04:11:07;1.90;;;1.40;;
26858;SDS011;14429;48.346;16.338;2023-04-24T04:13:34;1.73;;;1.00;;
26858;SDS011;14429;48.346;16.338;2023-04-24T04:16:00;1.23;;;1.10;;
26858;SDS011;14429;48.346;16.338;2023-04-24T04:18:25;2.13;;;1.58;;
26858;SDS011;14429;48.346;16.338;2023-04-24T04:20:51;1.63;;;1.08;;
26858;SDS011;14429;48.346;16.338;2023-04-24T04:23:16;2.35;;;1.60;;
26858;SDS011;14429;48.346;16.338;2023-04-24T04:25:41;2.08;;;1.27;;
26858;SDS011;14429;48.346;16.338;2023-04-24T04:28:07;4.15;;;1.67;;
26858;SDS011;14429;48.346;16.338;2023-04-24T04:30:34;1.77;;;1.23;;
26858;SDS011;14429;48.346;16.338;2023-04-24T04:32:59;2.45;;;1.58;;
26858;SDS011;14429;48.346;16.338;2023-04-24T04:35:25;2.47;;;1.42;;
26858;SDS011;14429;48.346;16.338;2023-04-24T04:37:50;1.20;;;1.05;;
26858;SDS011;14429;48.346;16.338;2023-04-24T04:40:15;3.95;;;2.00;;
26858;SDS011;14429;48.346;16.338;2023-04-24T04:42:41;2.05;;;1.20;;
26858;SDS011;14429;48.346;16.338;2023-04-24T04:45:07;2.42;;;1.40;;
26858;SDS011;14429;48.346;16.338;2023-04-24T04:47:34;1.33;;;1.08;;
26858;SDS011;14429;48.346;16.338;2023-04-24T04:49:59;2.03;;;1.48;;
26858;SDS011;14429;48.346;16.338;2023-04-24T04:52:25;1.90;;;1.35;;
26858;SDS011;14429;48.346;16.338;2023-04-24T04:54:51;1.52;;;1.10;;
26858;SDS011;14429;48.346;16.338;2023-04-24T04:57:16;1.23;;;1.13;;
26858;SDS011;14429;48.346;16.338;2023-04-24T04:59:42;1.45;;;1.33;;
26858;SDS011;14429;48.346;16.338;2023-04-24T05:02:07;2.33;;;1.50;;
26858;SDS011;14429;48.346;16.338;2023-04-24T05:04:34;1.58;;;1.05;;
26858;SDS011;14429;48.346;16.338;2023-04-24T05:06:59;1.30;;;1.10;;
26858;SDS011;14429;48.346;16.338;2023-04-24T05:09:25;2.30;;;1.13;;
26858;SDS011;14429;48.346;16.338;2023-04-24T05:11:50;3.28;;;1.90;;
26858;SDS011;14429;48.346;16.338;2023-04-24T05:14:16;2.75;;;1.60;;
26858;SDS011;14429;48.346;16.338;2023-04-24T05:16:41;1.92;;;1.23;;
26858;SDS011;14429;48.346;16.338;2023-04-24T05:19:06;3.75;;;1.40;;
26858;SDS011;14429;48.346;16.338;2023-04-24T05:21:33;1.10;;;1.00;;
26858;SDS011;14429;48.346;16.338;2023-04-24T05:23:59;1.98;;;1.30;;
26858;SDS011;14429;48.346;16.338;2023-04-24T05:26:24;1.75;;;1.42;;
26858;SDS011;14429;48.346;16.338;2023-04-24T05:28:50;1.40;;;1.20;;
26858;SDS011;14429;48.346;16.338;2023-04-24T05:31:15;4.88;;;1.70;;
26858;SDS011;14429;48.346;16.338;2023-04-24T05:33:41;0.93;;;0.93;;
26858;SDS011;14429;48.346;16.338;2023-04-24T05:36:06;3.95;;;1.45;;
26858;SDS011;14429;48.346;16.338;2023-04-24T05:38:33;1.13;;;1.00;;
26858;SDS011;14429;48.346;16.338;2023-04-24T05:40:59;2.50;;;1.33;;
26858;SDS011;14429;48.346;16.338;2023-04-24T05:43:24;1.25;;;1.13;;
26858;SDS011;14429;48.346;16.338;2023-04-24T05:45:50;1.70;;;1.00;;
26858;SDS011;14429;48.346;16.338;2023-04-24T05:48:15;1.73;;;1.30;;
26858;SDS011;14429;48.346;16.338;2023-04-24T05:50:41;2.70;;;1.17;;
26858;SDS011;14429;48.346;16.338;2023-04-24T05:53:06;1.58;;;1.17;;
26858;SDS011;14429;48.346;16.338;2023-04-24T05:55:33;2.15;;;1.02;;
26858;SDS011;14429;48.346;16.338;2023-04-24T05:57:58;3.97;;;1.15;;
26858;SDS011;14429;48.346;16.338;2023-04-24T06:00:24;1.50;;;1.40;;
26858;SDS011;14429;48.346;16.338;2023-04-24T06:02:50;1.27;;;0.98;;
26858;SDS011;14429;48.346;16.338;2023-04-24T06:05:16;0.98;;;0.90;;
26858;SDS011;14429;48.346;16.338;2023-04-24T06:07:41;2.45;;;1.55;;
26858;SDS011;14429;48.346;16.338;2023-04-24T06:10:07;1.60;;;1.30;;
26858;SDS011;14429;48.346;16.338;2023-04-24T06:12:35;2.13;;;1.35;;
26858;SDS011;14429;48.346;16.338;2023-04-24T06:15:00;1.15;;;0.93;;
26858;SDS011;14429;48.346;16.338;2023-04-24T06:17:26;2.33;;;1.40;;
26858;SDS011;14429;48.346;16.338;2023-04-24T06:19:51;1.60;;;1.27;;
26858;SDS011;14429;48.346;16.338;2023-04-24T06:22:16;1.30;;;0.90;;
26858;SDS011;14429;48.346;16.338;2023-04-24T06:24:42;1.45;;;1.30;;
26858;SDS011;14429;48.346;16.338;2023-04-24T06:27:07;1.80;;;1.45;;
26858;SDS011;14429;48.346;16.338;2023-04-24T06:29:35;1.60;;;1.50;;
26858;SDS011;14429;48.346;16.338;2023-04-24T06:32:01;1.05;;;0.98;;
26858;SDS011;14429;48.346;16.338;2023-04-24T06:34:26;2.75;;;1.77;;
26858;SDS011;14429;48.346;16.338;2023-04-24T06:36:52;3.72;;;1.70;;
26858;SDS011;14429;48.346;16.338;2023-04-24T06:39:17;1.52;;;1.10;;
26858;SDS011;14429;48.346;16.338;2023-04-24T06:41:43;1.67;;;1.40;;
26858;SDS011;14429;48.346;16.338;2023-04-24T06:44:08;1.80;;;1.50;;
26858;SDS011;14429;48.346;16.338;2023-04-24T06:46:35;1.25;;;1.17;;
26858;SDS011;14429;48.346;16.338;2023-04-24T06:49:00;1.58;;;1.20;;
26858;SDS011;14429;48.346;16.338;2023-04-24T06:51:26;1.58;;;1.35;;
26858;SDS011;14429;48.346;16.338;2023-04-24T06:53:52;1.90;;;1.35;;
26858;SDS011;14429;48.346;16.338;2023-04-24T06:56:18;2.58;;;1.58;;
26858;SDS011;14429;48.346;16.338;2023-04-24T06:58:43;1.42;;;1.33;;
26858;SDS011;14429;48.346;16.338;2023-04-24T07:01:09;2.88;;;1.45;;
26858;SDS011;14429;48.346;16.338;2023-04-24T07:03:36;4.03;;;1.40;;
26858;SDS011;14429;48.346;16.338;2023-04-24T07:06:02;1.48;;;1.30;;
26858;SDS011;14429;48.346;16.338;2023-04-24T07:08:28;1.55;;;1.20;;
26858;SDS011;14429;48.346;16.338;2023-04-24T07:10:53;2.97;;;1.67;;
26858;SDS011;14429;48.346;16.338;2023-04-24T07:13:19;1.40;;;1.10;;
26858;SDS011;14429;48.346;16.338;2023-04-24T07:15:44;1.60;;;1.25;;
26858;SDS011;14429;48.346;16.338;2023-04-24T07:18:10;1.08;;;1.00;;
26858;SDS011;14429;48.346;16.338;2023-04-24T07:20:36;1.40;;;1.20;;
26858;SDS011;14429;48.346;16.338;2023-04-24T07:23:02;1.38;;;1.00;;
26858;SDS011;14429;48.346;16.338;2023-04-24T07:25:27;1.45;;;1.02;;
26858;SDS011;14429;48.346;16.338;2023-04-24T07:27:53;1.75;;;1.40;;
26858;SDS011;14429;48.346;16.338;2023-04-24T07:30:18;1.52;;;1.00;;
26858;SDS011;14429;48.346;16.338;2023-04-24T07:32:44;1.35;;;1.02;;
26858;SDS011;14429;48.346;16.338;2023-04-24T07:35:09;1.30;;;1.20;;
26858;SDS011;14429;48.346;16.338;2023-04-24T07:37:36;1.25;;;1.10;;
26858;SDS011;14429;48.346;16.338;2023-04-24T07:40:02;1.08;;;0.98;;
26858;SDS011;14429;48.346;16.338;2023-04-24T07:42:28;1.75;;;1.55;;
26858;SDS011;14429;48.346;16.338;2023-04-24T07:44:53;2.25;;;1.90;;
26858;SDS011;14429;48.346;16.338;2023-04-24T07:47:18;2.25;;;1.17;;
26858;SDS011;14429;48.346;16.338;2023-04-24T07:49:44;1.10;;;1.00;;
26858;SDS011;14429;48.346;16.338;2023-04-24T07:52:09;2.28;;;1.90;;
26858;SDS011;14429;48.346;16.338;2023-04-24T07:54:36;1.25;;;1.15;;
26858;SDS011;14429;48.346;16.338;2023-04-24T07:57:02;2.33;;;1.08;;
26858;SDS011;14429;48.346;16.338;2023-04-24T07:59:28;2.38;;;1.20;;
26858;SDS011;14429;48.346;16.338;2023-04-24T08:01:53;1.65;;;1.20;;
26858;SDS011;14429;48.346;16.338;2023-04-24T08:04:18;2.63;;;1.20;;
26858;SDS011;14429;48.346;16.338;2023-04-24T08:06:44;2.58;;;1.77;;
26858;SDS011;14429;48.346;16.338;2023-04-24T08:09:09;3.10;;;1.52;;
26858;SDS011;14429;48.346;16.338;2023-04-24T08:11:37;2.03;;;1.15;;
26858;SDS011;14429;48.346;16.338;2023-04-24T08:14:02;1.25;;;1.15;;
26858;SDS011;14429;48.346;16.338;2023-04-24T08:16:28;3.63;;;0.93;;
26858;SDS011;14429;48.346;16.338;2023-04-24T08:18:53;1.98;;;0.93;;
26858;SDS011;14429;48.346;16.338;2023-04-24T08:21:19;2.15;;;1.48;;
26858;SDS011;14429;48.346;16.338;2023-04-24T08:23:44;1.58;;;1.00;;
26858;SDS011;14429;48.346;16.338;2023-04-24T08:26:10;2.00;;;1.60;;
26858;SDS011;14429;48.346;16.338;2023-04-24T08:28:37;1.10;;;1.00;;
26858;SDS011;14429;48.346;16.338;2023-04-24T08:31:02;1.08;;;0.98;;
26858;SDS011;14429;48.346;16.338;2023-04-24T08:33:28;1.52;;;1.08;;
26858;SDS011;14429;48.346;16.338;2023-04-24T08:35:54;1.25;;;0.98;;
26858;SDS011;14429;48.346;16.338;2023-04-24T08:38:19;1.33;;;0.90;;
26858;SDS011;14429;48.346;16.338;2023-04-24T08:40:44;1.40;;;1.00;;
26858;SDS011;14429;48.346;16.338;2023-04-24T08:43:10;5.10;;;1.00;;
26858;SDS011;14429;48.346;16.338;2023-04-24T08:45:38;2.65;;;1.10;;
26858;SDS011;14429;48.346;16.338;2023-04-24T08:48:04;1.33;;;1.20;;
26858;SDS011;14429;48.346;16.338;2023-04-24T08:50:30;0.70;;;0.70;;
26858;SDS011;14429;48.346;16.338;2023-04-24T08:52:56;1.05;;;0.98;;
26858;SDS011;14429;48.346;16.338;2023-04-24T08:55:22;1.15;;;1.00;;
26858;SDS011;14429;48.346;16.338;2023-04-24T08:57:50;1.15;;;1.00;;
26858;SDS011;14429;48.346;16.338;2023-04-24T09:00:17;1.60;;;1.50;;
26858;SDS011;14429;48.346;16.338;2023-04-24T09:02:45;1.38;;;1.00;;
26858;SDS011;14429;48.346;16.338;2023-04-24T09:05:13;1.40;;;1.00;;
26858;SDS011;14429;48.346;16.338;2023-04-24T09:07:41;1.55;;;1.20;;
26858;SDS011;14429;48.346;16.338;2023-04-24T09:10:09;1.38;;;1.00;;
26858;SDS011;14429;48.346;16.338;2023-04-24T09:12:35;1.13;;;1.00;;
26858;SDS011;14429;48.346;16.338;2023-04-24T09:15:01;3.03;;;1.25;;
26858;SDS011;14429;48.346;16.338;2023-04-24T09:17:27;1.08;;;0.88;;
26858;SDS011;14429;48.346;16.338;2023-04-24T09:19:54;1.15;;;0.90;;
26858;SDS011;14429;48.346;16.338;2023-04-24T09:22:20;0.95;;;0.80;;
26858;SDS011;14429;48.346;16.338;2023-04-24T09:24:46;0.70;;;0.70;;
26858;SDS011;14429;48.346;16.338;2023-04-24T09:27:12;0.75;;;0.70;;
26858;SDS011;14429;48.346;16.338;2023-04-24T09:29:38;0.70;;;0.70;;
26858;SDS011;14429;48.346;16.338;2023-04-24T09:32:17;1.05;;;0.95;;
26858;SDS011;14429;48.346;16.338;2023-04-24T09:34:43;1.48;;;0.88;;
26858;SDS011;14429;48.346;16.338;2023-04-24T09:37:14;1.05;;;0.80;;
26858;SDS011;14429;48.346;16.338;2023-04-24T09:40:06;4.00;;;1.30;;
26858;SDS011;14429;48.346;16.338;2023-04-24T09:42:32;0.90;;;0.75;;
26858;SDS011;14429;48.346;16.338;2023-04-24T09:44:58;0.82;;;0.75;;
26858;SDS011;14429;48.346;16.338;2023-04-24T09:47:23;1.05;;;0.98;;
26858;SDS011;14429;48.346;16.338;2023-04-24T09:49:48;2.78;;;0.73;;
26858;SDS011;14429;48.346;16.338;2023-04-24T09:52:15;1.00;;;0.82;;
26858;SDS011;14429;48.346;16.338;2023-04-24T09:54:41;1.92;;;1.20;;
26858;SDS011;14429;48.346;16.338;2023-04-24T09:57:07;0.80;;;0.70;;
26858;SDS011;14429;48.346;16.338;2023-04-24T09:59:33;1.13;;;0.80;;
26858;SDS011;14429;48.346;16.338;2023-04-24T10:01:58;1.30;;;1.00;;
26858;SDS011;14429;48.346;16.338;2023-04-24T10:04:25;0.70;;;0.70;;
26858;SDS011;14429;48.346;16.338;2023-04-24T10:06:53;0.65;;;0.65;;
26858;SDS011;14429;48.346;16.338;2023-04-24T10:09:22;1.20;;;0.90;;
26858;SDS011;14429;48.346;16.338;2023-04-24T10:11:50;1.10;;;0.98;;
26858;SDS011;14429;48.346;16.338;2023-04-24T10:14:17;1.48;;;0.93;;
26858;SDS011;14429;48.346;16.338;2023-04-24T10:16:44;1.00;;;0.90;;
26858;SDS011;14429;48.346;16.338;2023-04-24T10:19:10;0.98;;;0.82;;
26858;SDS011;14429;48.346;16.338;2023-04-24T10:21:36;0.70;;;0.70;;
26858;SDS011;14429;48.346;16.338;2023-04-24T10:24:01;0.85;;;0.85;;
26858;SDS011;14429;48.346;16.338;2023-04-24T10:26:28;0.70;;;0.70;;
26858;SDS011;14429;48.346;16.338;2023-04-24T10:28:54;1.02;;;0.63;;
26858;SDS011;14429;48.346;16.338;2023-04-24T10:31:23;1.35;;;0.70;;
26858;SDS011;14429;48.346;16.338;2023-04-24T10:33:49;1.85;;;0.93;;
26858;SDS011;14429;48.346;16.338;2023-04-24T10:36:16;1.95;;;0.88;;
26858;SDS011;14429;48.346;16.338;2023-04-24T10:38:43;0.85;;;0.63;;
26858;SDS011;14429;48.346;16.338;2023-04-24T10:41:11;0.68;;;0.68;;
26858;SDS011;14429;48.346;16.338;2023-04-24T10:43:39;0.73;;;0.70;;
26858;SDS011;14429;48.346;16.338;2023-04-24T10:46:05;0.90;;;0.80;;
26858;SDS011;14429;48.346;16.338;2023-04-24T10:48:31;1.70;;;1.10;;
26858;SDS011;14429;48.346;16.338;2023-04-24T10:50:57;1.08;;;0.98;;
26858;SDS011;14429;48.346;16.338;2023-04-24T10:53:23;1.55;;;1.00;;
26858;SDS011;14429;48.346;16.338;2023-04-24T10:55:50;0.85;;;0.70;;
26858;SDS011;14429;48.346;16.338;2023-04-24T10:58:16;1.15;;;0.80;;
26858;SDS011;14429;48.346;16.338;2023-04-24T11:00:55;0.98;;;0.80;;
26858;SDS011;14429;48.346;16.338;2023-04-24T11:03:25;0.63;;;0.57;;
26858;SDS011;14429;48.346;16.338;2023-04-24T11:05:55;1.00;;;0.70;;
26858;SDS011;14429;48.346;16.338;2023-04-24T11:08:23;2.92;;;0.73;;
26858;SDS011;14429;48.346;16.338;2023-04-24T11:10:54;1.05;;;0.80;;
26858;SDS011;14429;48.346;16.338;2023-04-24T11:13:21;1.58;;;0.85;;
26858;SDS011;14429;48.346;16.338;2023-04-24T11:15:54;1.52;;;0.73;;
26858;SDS011;14429;48.346;16.338;2023-04-24T11:18:37;0.60;;;0.60;;
26858;SDS011;14429;48.346;16.338;2023-04-24T11:21:09;1.05;;;0.80;;
26858;SDS011;14429;48.346;16.338;2023-04-24T11:23:35;0.80;;;0.80;;
26858;SDS011;14429;48.346;16.338;2023-04-24T11:26:09;0.98;;;0.88;;
26858;SDS011;14429;48.346;16.338;2023-04-24T11:28:35;1.63;;;0.77;;
26858;SDS011;14429;48.346;16.338;2023-04-24T11:34:05;1.48;;;0.98;;
26858;SDS011;14429;48.346;16.338;2023-04-24T11:36:32;0.93;;;0.82;;
26858;SDS011;14429;48.346;16.338;2023-04-24T11:38:57;1.33;;;0.70;;
26858;SDS011;14429;48.346;16.338;2023-04-24T11:41:23;0.63;;;0.63;;
26858;SDS011;14429;48.346;16.338;2023-04-24T11:43:49;1.08;;;0.95;;
26858;SDS011;14429;48.346;16.338;2023-04-24T11:46:16;0.80;;;0.57;;
26858;SDS011;14429;48.346;16.338;2023-04-24T11:48:45;1.05;;;0.65;;
26858;SDS011;14429;48.346;16.338;2023-04-24T11:51:11;3.20;;;0.90;;
26858;SDS011;14429;48.346;16.338;2023-04-24T11:53:37;1.95;;;0.93;;
26858;SDS011;14429;48.346;16.338;2023-04-24T11:56:03;0.70;;;0.70;;
26858;SDS011;14429;48.346;16.338;2023-04-24T11:58:28;1.73;;;0.90;;
26858;SDS011;14429;48.346;16.338;2023-04-24T12:00:59;0.55;;;0.50;;
26858;SDS011;14429;48.346;16.338;2023-04-24T12:03:24;0.77;;;0.77;;
26858;SDS011;14429;48.346;16.338;2023-04-24T12:05:51;0.47;;;0.47;;
26858;SDS011;14429;48.346;16.338;2023-04-24T12:08:26;1.10;;;0.68;;
26858;SDS011;14429;48.346;16.338;2023-04-24T12:10:52;1.15;;;0.80;;
26858;SDS011;14429;48.346;16.338;2023-04-24T12:13:18;0.73;;;0.60;;
26858;SDS011;14429;48.346;16.338;2023-04-24T12:15:43;0.93;;;0.52;;
26858;SDS011;14429;48.346;16.338;2023-04-24T12:18:11;1.60;;;0.77;;
26858;SDS011;14429;48.346;16.338;2023-04-24T12:20:37;0.90;;;0.80;;
26858;SDS011;14429;48.346;16.338;2023-04-24T12:23:04;0.65;;;0.65;;
26858;SDS011;14429;48.346;16.338;2023-04-24T12:25:30;0.95;;;0.68;;
26858;SDS011;14429;48.346;16.338;2023-04-24T12:28:08;0.55;;;0.55;;
26858;SDS011;14429;48.346;16.338;2023-04-24T12:30:35;1.92;;;0.90;;
26858;SDS011;14429;48.346;16.338;2023-04-24T12:33:04;0.70;;;0.65;;
26858;SDS011;14429;48.346;16.338;2023-04-24T12:35:30;0.40;;;0.40;;
26858;SDS011;14429;48.346;16.338;2023-04-24T12:38:06;0.40;;;0.40;;
26858;SDS011;14429;48.346;16.338;2023-04-24T12:40:31;0.68;;;0.68;;
26858;SDS011;14429;48.346;16.338;2023-04-24T12:42:57;1.17;;;0.68;;
26858;SDS011;14429;48.346;16.338;2023-04-24T12:45:22;1.35;;;1.25;;
26858;SDS011;14429;48.346;16.338;2023-04-24T12:47:48;3.58;;;1.20;;
26858;SDS011;14429;48.346;16.338;2023-04-24T12:50:14;2.15;;;1.20;;
26858;SDS011;14429;48.346;16.338;2023-04-24T12:52:40;0.50;;;0.50;;
26858;SDS011;14429;48.346;16.338;2023-04-24T12:55:08;1.10;;;0.80;;
26858;SDS011;14429;48.346;16.338;2023-04-24T12:57:34;0.65;;;0.65;;
26858;SDS011;14429;48.346;16.338;2023-04-24T13:00:01;0.80;;;0.68;;
26858;SDS011;14429;48.346;16.338;2023-04-24T13:02:28;1.00;;;0.45;;
26858;SDS011;14429;48.346;16.338;2023-04-24T13:04:54;2.25;;;0.63;;
26858;SDS011;14429;48.346;16.338;2023-04-24T13:07:20;0.93;;;0.80;;
26858;SDS011;14429;48.346;16.338;2023-04-24T13:09:45;0.43;;;0.40;;
26858;SDS011;14429;48.346;16.338;2023-04-24T13:12:14;0.65;;;0.65;;
26858;SDS011;14429;48.346;16.338;2023-04-24T13:14:39;0.40;;;0.40;;
26858;SDS011;14429;48.346;16.338;2023-04-24T13:17:05;0.40;;;0.40;;
26858;SDS011;14429;48.346;16.338;2023-04-24T13:19:35;0.47;;;0.47;;
26858;SDS011;14429;48.346;16.338;2023-04-24T13:22:01;1.77;;;0.85;;
26858;SDS011;14429;48.346;16.338;2023-04-24T13:24:26;0.85;;;0.50;;
26858;SDS011;14429;48.346;16.338;2023-04-24T13:26:52;0.73;;;0.60;;
26858;SDS011;14429;48.346;16.338;2023-04-24T13:29:19;0.40;;;0.40;;
26858;SDS011;14429;48.346;16.338;2023-04-24T13:31:45;1.17;;;0.73;;
26858;SDS011;14429;48.346;16.338;2023-04-24T13:34:11;2.05;;;0.93;;
26858;SDS011;14429;48.346;16.338;2023-04-24T13:36:37;0.95;;;0.60;;
26858;SDS011;14429;48.346;16.338;2023-04-24T13:39:02;1.15;;;0.88;;
26858;SDS011;14429;48.346;16.338;2023-04-24T13:41:30;0.45;;;0.45;;
26858;SDS011;14429;48.346;16.338;2023-04-24T13:43:55;0.88;;;0.63;;
26858;SDS011;14429;48.346;16.338;2023-04-24T13:46:22;0.57;;;0.57;;
26858;SDS011;14429;48.346;16.338;2023-04-24T13:48:47;0.93;;;0.80;;
26858;SDS011;14429;48.346;16.338;2023-04-24T13:51:13;0.57;;;0.50;;
26858;SDS011;14429;48.346;16.338;2023-04-24T13:53:38;0.52;;;0.40;;
26858;SDS011;14429;48.346;16.338;2023-04-24T13:56:04;1.27;;;0.80;;
26858;SDS011;14429;48.346;16.338;2023-04-24T13:58:30;1.00;;;0.80;;
26858;SDS011;14429;48.346;16.338;2023-04-24T14:00:55;0.77;;;0.60;;
26858;SDS011;14429;48.346;16.338;2023-04-24T14:03:22;1.58;;;0.80;;
26858;SDS011;14429;48.346;16.338;2023-04-24T14:05:47;1.25;;;0.98;;
26858;SDS011;14429;48.346;16.338;2023-04-24T14:08:13;0.50;;;0.50;;
26858;SDS011;14429;48.346;16.338;2023-04-24T14:10:38;1.73;;;1.02;;
26858;SDS011;14429;48.346;16.338;2023-04-24T14:13:04;0.60;;;0.60;;
26858;SDS011;14429;48.346;16.338;2023-04-24T14:15:29;0.98;;;0.90;;
26858;SDS011;14429;48.346;16.338;2023-04-24T14:17:55;0.55;;;0.55;;
26858;SDS011;14429;48.346;16.338;2023-04-24T14:20:22;0.77;;;0.77;;
26858;SDS011;14429;48.346;16.338;2023-04-24T14:22:48;0.52;;;0.52;;
26858;SDS011;14429;48.346;16.338;2023-04-24T14:25:13;0.52;;;0.52;;
26858;SDS011;14429;48.346;16.338;2023-04-24T14:27:39;0.40;;;0.40;;
26858;SDS011;14429;48.346;16.338;2023-04-24T14:30:05;0.95;;;0.57;;